Mc Cracken, Kansas
Current Conditions -  °F | °C
As of 12:55 AM on Wednesday 26 Nov 2014 (Local Time) from KHYS Reporting Station
Overcast Overcast  
Wind Chill: 40°   Ceiling: 9000
Heat Index: 46°   Visibility: 10mi
Dew Point: 25°   Wind: 15mph
Humidity: 43%   Direction: 330°NNW
Pressure: 29.98"   Gusts: NA
Location:  38.6313°N, 99.4817°W
Report Text: KHYS 260655Z AUTO 33013KT 10SM OVC090 08/M04 A2998 RMK AO1
Loading
Personal Weather Stations






























Interactive Weather Map New forecast layout! Learn more

10-Day Weather Forecast

Advertisements
Track Severe Weather on mobile